Forside
METAR-TAF:

METAR-TAF

Lufthavne :

Acapulco, Mexico

Breddekreds: 16-46N, længdekreds: 099-45W, højde: 5 m

Aktuelle vejr

Denne rapport blev lavet for 43 minutter siden, kl. 09:43 UTC
Vind 6 kt fra nordnordvest
Temperatur 24°C
Fugtighed 83%
Tryk 1012 hPa
Sigt: 9.7 km
Nogle få skyer i en højde af 30000 ft

METAR: MMAA 160943Z 34006KT 6SM FEW300 24/21 A2987 RMK 8/001 HZY

Tid: 04:26 (10:26 UTC)

Vejrudsigter

Denne rapport blev lavet for 5 timer og 36 minutter siden, kl. 04:50 UTC
Foreløbig gælder fra 16 på 06 UTC til 17 på 12 UTC
Vind kt fra nord
Sigt: 9.7 km
skyfri
tåge/dis
Fra 16 på 1800 UTC
Vind 10 kt fra vestsydvest
Sigt: 9.7 km
skyfri
tåge/dis
Fra 17 på 0400 UTC
Vind 5 kt fra sydvest
Sigt: 9.7 km
skyfri
tåge/dis

TAF: MMAA 160450Z 1606/1712 00000KT 6SM HZ SKC TX31/1619Z TN24/1612Z FM161800 24010KT 6SM HZ SKC FM170400 23005KT 6SM HZ SKC

Vejrobservationer og prognoser fra mere end 4000 lufthavne (METAR og TAF).

De gule og røde prikker repræsenterer de meteorologiske stationer.

Flyt musen over at se navnet på stationen.

Så klik over at se vejr observationer og prognoser.

At skifte det kort: Klik på de grønne knapper med et sort kors for at zoome ind; på den grønne knap med en bindestreg for at zoome ud; eller på de grønne pile for tilstødende kort.


METAR-TAF: